Time;durP1;ratioP1;P1;durP2;ratioP2;P2;SDS_P1;SDS_P2;PMS_P1;PMS_P2;Temp;Humidity;BMP_temperature;BMP_pressure;BME280_temperature;BME280_humidity;BME280_pressure;Samples;Min_cycle;Max_cycle;Signal;HPM_P1;HPM_P2
2022/03/14 00:00:44;;;;;;;32.03;13.38;;;;;;;-0.59;66.23;95534.59;5061932;28;20523;-75
2022/03/14 00:03:14;;;;;;;36.13;13.05;;;;;;;-0.53;65.64;95537.19;5054647;28;20040;-75
2022/03/14 00:05:40;;;;;;;32.20;13.13;;;;;;;-0.43;65.27;95548.91;5038079;28;20098;-76
2022/03/14 00:08:06;;;;;;;31.27;12.80;;;;;;;-0.45;65.59;95545.75;5049058;28;20048;-76
2022/03/14 00:10:34;;;;;;;32.95;12.55;;;;;;;-0.56;66.21;95544.53;5031851;28;20039;-75
2022/03/14 00:13:01;;;;;;;34.35;12.27;;;;;;;-0.49;65.48;95549.72;5039950;28;20045;-76
2022/03/14 00:15:33;;;;;;;31.50;12.38;;;;;;;-0.62;65.98;95553.88;5046322;28;20037;-75
2022/03/14 00:18:01;;;;;;;30.38;12.95;;;;;;;-0.65;66.30;95556.84;5059533;28;20143;-75
2022/03/14 00:20:27;;;;;;;36.53;13.18;;;;;;;-0.62;67.04;95556.47;5044866;28;20033;-75
2022/03/14 00:22:53;;;;;;;32.35;12.57;;;;;;;-0.72;66.43;95566.41;5050741;28;20044;-75
2022/03/14 00:25:19;;;;;;;29.27;12.65;;;;;;;-0.82;67.05;95571.16;5043944;28;20060;-75
2022/03/14 00:27:45;;;;;;;34.05;12.75;;;;;;;-0.97;67.44;95579.88;5030663;28;20103;-76
2022/03/14 00:30:12;;;;;;;28.77;12.70;;;;;;;-1.03;67.66;95583.22;5032085;28;20033;-75
2022/03/14 00:32:41;;;;;;;33.17;13.05;;;;;;;-1.00;68.40;95580.25;5038109;28;20234;-72
2022/03/14 00:35:07;;;;;;;34.72;13.60;;;;;;;-0.91;67.82;95581.66;5030824;28;20045;-72
2022/03/14 00:37:34;;;;;;;32.25;12.88;;;;;;;-0.72;66.76;95597.41;5044588;28;20041;-75
2022/03/14 00:40:00;;;;;;;32.80;13.48;;;;;;;-0.70;67.11;95600.59;5045859;28;20041;-75
2022/03/14 00:42:26;;;;;;;28.45;12.43;;;;;;;-0.65;66.80;95605.97;5035980;28;20118;-75
2022/03/14 00:44:52;;;;;;;34.78;13.07;;;;;;;-0.67;67.18;95609.75;5046781;28;20491;-75
2022/03/14 00:47:19;;;;;;;30.60;12.10;;;;;;;-0.66;66.62;95612.16;5042262;28;20119;-75
2022/03/14 00:49:46;;;;;;;29.50;12.93;;;;;;;-0.69;66.91;95617.69;5034588;28;20041;-75
2022/03/14 00:52:12;;;;;;;25.10;11.38;;;;;;;-0.74;67.35;95622.66;5042365;28;20032;-75
2022/03/14 00:54:38;;;;;;;26.85;11.98;;;;;;;-0.74;67.29;95622.66;5032088;28;20586;-77
2022/03/14 00:57:04;;;;;;;30.45;12.15;;;;;;;-0.64;67.08;95623.09;5046116;28;20033;-77
2022/03/14 00:59:30;;;;;;;28.83;12.65;;;;;;;-0.64;67.52;95617.91;5039686;28;20565;-76
2022/03/14 01:01:55;;;;;;;28.92;12.35;;;;;;;-0.71;67.62;95623.06;5049345;28;20052;-76
2022/03/14 01:04:21;;;;;;;30.50;12.68;;;;;;;-0.76;67.33;95622.03;5062340;28;20042;-76
2022/03/14 01:06:47;;;;;;;28.88;12.30;;;;;;;-0.81;68.05;95614.88;5038873;28;20072;-76
2022/03/14 01:09:14;;;;;;;28.33;12.02;;;;;;;-0.83;68.08;95622.03;5041181;28;20120;-76
2022/03/14 01:11:44;;;;;;;27.30;12.07;;;;;;;-1.13;69.19;95629.28;5039191;28;20049;-76
2022/03/14 01:14:11;;;;;;;28.85;12.90;;;;;;;-1.32;70.18;95629.00;5029237;28;20112;-76
2022/03/14 01:16:37;;;;;;;27.67;12.13;;;;;;;-1.15;69.06;95629.50;5041827;28;20049;-76
2022/03/14 01:19:04;;;;;;;30.42;12.05;;;;;;;-1.08;68.58;95629.50;5043092;28;20037;-76
2022/03/14 01:21:30;;;;;;;35.10;12.70;;;;;;;-0.98;68.55;95639.47;5039555;28;20072;-76
2022/03/14 01:23:56;;;;;;;30.75;12.98;;;;;;;-0.98;68.52;95645.44;5041890;28;20120;-76
2022/03/14 01:26:22;;;;;;;28.92;12.43;;;;;;;-1.10;69.70;95644.41;5043435;28;20045;-76
2022/03/14 01:28:48;;;;;;;34.42;13.68;;;;;;;-1.17;69.65;95641.00;5061518;28;20091;-76
2022/03/14 01:31:14;;;;;;;30.48;13.07;;;;;;;-1.33;70.29;95652.44;5034719;28;20099;-72
2022/03/14 01:33:39;;;;;;;27.98;11.48;;;;;;;-1.20;69.81;95652.50;5040150;28;20041;-72
2022/03/14 01:36:05;;;;;;;27.80;11.65;;;;;;;-1.22;69.34;95655.28;5041064;28;20047;-72
2022/03/14 01:38:31;;;;;;;27.85;12.20;;;;;;;-1.14;69.41;95662.06;5061998;28;20103;-72
2022/03/14 01:40:56;;;;;;;29.83;12.63;;;;;;;-1.03;69.17;95668.47;5047167;28;20047;-75
2022/03/14 01:43:24;;;;;;;27.83;12.00;;;;;;;-1.12;69.94;95664.44;5047092;28;20045;-75
2022/03/14 01:45:50;;;;;;;26.65;11.80;;;;;;;-1.02;69.62;95675.25;5031415;28;20069;-75
2022/03/14 01:48:16;;;;;;;31.35;12.23;;;;;;;-1.16;69.76;95673.59;5041755;28;20495;-75
2022/03/14 01:50:41;;;;;;;28.15;12.23;;;;;;;-1.27;70.61;95683.44;5041847;28;20070;-75
2022/03/14 01:53:08;;;;;;;30.50;12.23;;;;;;;-1.30;71.26;95678.66;5046947;28;20076;-75
2022/03/14 01:55:34;;;;;;;28.67;12.70;;;;;;;-1.17;70.09;95672.78;5041869;28;20534;-75
2022/03/14 01:58:03;;;;;;;28.67;12.65;;;;;;;-1.28;70.63;95676.72;5045769;28;20558;-75
2022/03/14 02:00:29;;;;;;;27.75;12.30;;;;;;;-1.25;70.66;95691.81;5049090;28;20041;-72
2022/03/14 02:02:55;;;;;;;28.92;12.60;;;;;;;-1.20;71.36;95698.97;5041922;28;20810;-72
2022/03/14 02:05:21;;;;;;;28.55;11.98;;;;;;;-1.12;70.76;95705.78;5028977;28;20041;-72
2022/03/14 02:07:46;;;;;;;26.80;12.30;;;;;;;-0.77;69.76;95703.16;5032525;28;20053;-74
2022/03/14 02:10:12;;;;;;;28.42;12.10;;;;;;;-0.68;69.67;95691.66;5044622;28;20108;-75
2022/03/14 02:12:42;;;;;;;27.02;11.88;;;;;;;-0.75;69.51;95703.75;5043674;28;20163;-75
2022/03/14 02:15:08;;;;;;;32.05;12.20;;;;;;;-0.71;68.96;95702.38;5034906;28;20116;-74
2022/03/14 02:17:34;;;;;;;28.65;12.32;;;;;;;-0.84;69.73;95723.00;5049579;28;20044;-75
2022/03/14 02:20:00;;;;;;;30.45;12.13;;;;;;;-0.67;69.41;95744.94;5050122;28;20041;-75
2022/03/14 02:22:26;;;;;;;28.35;12.43;;;;;;;-0.48;69.18;95758.16;5048447;28;20121;-76
2022/03/14 02:24:52;;;;;;;29.13;11.65;;;;;;;-0.28;68.83;95748.66;5045079;28;20060;-76
2022/03/14 02:27:19;;;;;;;25.73;11.48;;;;;;;-0.27;68.59;95765.78;5046184;28;20049;-76
2022/03/14 02:29:45;;;;;;;27.45;11.25;;;;;;;-0.27;69.02;95780.53;5059917;28;20782;-76
2022/03/14 02:32:12;;;;;;;28.33;11.90;;;;;;;-0.24;68.59;95780.91;5071542;28;20032;-77
2022/03/14 02:34:39;;;;;;;27.90;11.20;;;;;;;-0.03;68.00;95776.56;5040295;28;20053;-76
2022/03/14 02:37:04;;;;;;;26.45;11.52;;;;;;;-0.06;67.75;95782.16;5047300;28;20443;-77
2022/03/14 02:39:34;;;;;;;31.10;11.98;;;;;;;-0.01;68.19;95784.97;5050345;28;20049;-76
2022/03/14 02:42:04;;;;;;;31.15;11.50;;;;;;;-0.05;68.09;95779.38;5045097;28;20041;-76
2022/03/14 02:44:31;;;;;;;25.25;11.00;;;;;;;-0.09;69.23;95782.53;5047931;28;20041;-76
2022/03/14 02:46:57;;;;;;;28.63;11.30;;;;;;;-0.09;68.86;95777.38;5048807;28;20474;-76
2022/03/14 02:49:23;;;;;;;26.00;11.20;;;;;;;0.15;68.30;95794.94;5050112;28;20104;-76
2022/03/14 02:51:50;;;;;;;26.38;12.07;;;;;;;0.18;67.88;95804.09;5042200;28;20045;-76
2022/03/14 02:54:16;;;;;;;26.23;11.77;;;;;;;0.21;68.16;95808.09;5042019;28;20554;-77
2022/03/14 02:56:41;;;;;;;25.92;11.60;;;;;;;0.29;67.64;95815.69;5046611;28;20072;-74
2022/03/14 02:59:07;;;;;;;30.45;11.45;;;;;;;0.22;68.33;95820.06;5049104;28;20489;-74
2022/03/14 03:01:37;;;;;;;25.60;10.93;;;;;;;0.30;68.25;95825.03;5050347;28;20499;-73
2022/03/14 03:04:04;;;;;;;25.90;11.70;;;;;;;0.17;68.55;95834.38;5043172;28;20061;-76
2022/03/14 03:06:33;;;;;;;23.85;10.40;;;;;;;0.22;68.69;95835.59;5060101;28;20502;-77
2022/03/14 03:09:00;;;;;;;23.63;9.73;;;;;;;0.70;67.25;95832.84;5055715;28;20064;-76
2022/03/14 03:11:25;;;;;;;25.58;9.07;;;;;;;1.48;63.90;95839.13;5050727;28;20075;-76
2022/03/14 03:13:56;;;;;;;21.17;8.65;;;;;;;2.22;61.77;95840.44;5041416;28;20463;-77
2022/03/14 03:16:22;;;;;;;19.45;8.25;;;;;;;3.29;58.75;95839.69;5038874;28;20037;-77
2022/03/14 03:18:48;;;;;;;19.20;8.20;;;;;;;3.85;58.60;95849.31;5063651;28;20043;-74
2022/03/14 03:21:15;;;;;;;18.80;7.90;;;;;;;4.42;58.03;95852.41;5055101;28;20041;-74
2022/03/14 03:23:41;;;;;;;22.45;9.38;;;;;;;4.85;57.62;95855.81;5034390;28;20040;-74
2022/03/14 03:26:07;;;;;;;24.38;9.13;;;;;;;5.24;57.20;95864.00;5045874;28;20048;-74
2022/03/14 03:28:35;;;;;;;20.63;9.15;;;;;;;5.59;56.55;95865.84;5048176;28;20041;-74
2022/03/14 03:31:09;;;;;;;22.77;10.13;;;;;;;5.70;56.94;95877.28;5050033;28;20090;-74
2022/03/14 03:33:36;;;;;;;27.45;10.07;;;;;;;6.02;56.31;95885.56;5043522;28;20044;-74
2022/03/14 03:36:03;;;;;;;28.05;10.10;;;;;;;6.19;56.60;95895.28;5040609;28;20557;-74
2022/03/14 03:38:28;;;;;;;27.15;10.82;;;;;;;6.22;55.91;95889.56;5048164;28;20529;-74
2022/03/14 03:40:54;;;;;;;26.85;10.77;;;;;;;6.34;56.71;95898.19;5046693;28;20045;-73
2022/03/14 03:43:20;;;;;;;29.88;10.98;;;;;;;6.37;56.60;95913.41;5049608;28;20494;-73
2022/03/14 03:45:46;;;;;;;28.20;11.65;;;;;;;6.38;57.03;95925.47;5045740;28;20044;-74
2022/03/14 03:48:11;;;;;;;27.15;10.40;;;;;;;6.46;57.39;95931.34;5044863;28;20036;-74
2022/03/14 03:50:38;;;;;;;28.95;11.32;;;;;;;6.58;57.16;95932.91;5047974;28;20167;-73
2022/03/14 03:53:03;;;;;;;31.33;12.20;;;;;;;6.59;57.80;95936.28;5049413;28;20120;-74
2022/03/14 03:55:29;;;;;;;27.98;11.57;;;;;;;6.74;58.22;95948.88;5046707;28;20110;-74
2022/03/14 03:57:55;;;;;;;25.00;11.68;;;;;;;6.78;58.78;95954.44;5037548;28;20041;-73
2022/03/14 04:00:21;;;;;;;32.03;12.35;;;;;;;6.81;59.06;95961.81;5051005;28;20032;-74
2022/03/14 04:02:47;;;;;;;39.05;12.88;;;;;;;6.83;59.92;95972.84;5048318;28;20049;-75
2022/03/14 04:05:16;;;;;;;32.63;13.52;;;;;;;6.96;60.30;95977.78;5047675;28;20573;-74
2022/03/14 04:07:43;;;;;;;35.72;14.23;;;;;;;7.06;61.14;95983.19;5042818;28;20585;-74
2022/03/14 04:10:11;;;;;;;32.30;13.88;;;;;;;6.89;61.49;95987.59;5050558;28;20041;-75
2022/03/14 04:12:38;;;;;;;36.28;14.50;;;;;;;6.92;62.31;95992.34;5036162;28;20045;-75
2022/03/14 04:15:07;;;;;;;39.08;15.77;;;;;;;6.89;63.36;95993.63;5039385;28;20553;-75
2022/03/14 04:17:35;;;;;;;39.75;15.45;;;;;;;7.02;62.96;96003.00;5050917;28;20037;-75
2022/03/14 04:20:03;;;;;;;37.33;15.20;;;;;;;7.02;62.92;96013.47;5030071;28;20507;-73
2022/03/14 04:22:29;;;;;;;36.42;15.77;;;;;;;6.94;63.47;96016.47;5037481;28;20056;-74
2022/03/14 04:24:54;;;;;;;40.63;17.10;;;;;;;6.86;63.93;96019.47;5049755;28;20483;-74
2022/03/14 04:27:20;;;;;;;39.28;16.83;;;;;;;6.80;64.63;96025.63;5041985;28;20044;-74
2022/03/14 04:29:46;;;;;;;38.30;16.23;;;;;;;6.89;64.75;96037.31;5042268;28;20450;-73
2022/03/14 04:32:11;;;;;;;38.92;17.23;;;;;;;6.96;64.78;96037.97;5044722;28;20064;-74
2022/03/14 04:34:37;;;;;;;43.05;17.73;;;;;;;6.80;65.41;96038.72;5042318;28;20426;-74
2022/03/14 04:37:02;;;;;;;40.67;17.20;;;;;;;6.59;65.90;96041.72;5040251;28;20057;-74
2022/03/14 04:39:28;;;;;;;42.65;17.08;;;;;;;6.51;66.51;96049.13;5045506;28;20530;-74
2022/03/14 04:41:54;;;;;;;43.63;18.38;;;;;;;6.48;66.72;96052.16;5029627;28;20045;-74
2022/03/14 04:44:21;;;;;;;39.75;16.77;;;;;;;6.67;66.78;96053.63;5054611;28;20040;-74
2022/03/14 04:46:48;;;;;;;42.00;16.73;;;;;;;6.64;66.96;96061.94;5028971;28;20526;-74
2022/03/14 04:49:13;;;;;;;49.70;17.27;;;;;;;6.54;67.11;96072.19;5043647;28;20033;-73
2022/03/14 04:51:39;;;;;;;44.63;16.73;;;;;;;6.44;68.10;96074.56;5033226;28;20051;-74
2022/03/14 04:54:05;;;;;;;45.13;18.30;;;;;;;6.33;68.27;96082.19;5048018;28;20052;-73
2022/03/14 04:56:31;;;;;;;43.33;17.58;;;;;;;6.40;68.38;96085.47;5045558;28;20036;-74
2022/03/14 04:58:56;;;;;;;44.20;17.15;;;;;;;6.21;69.16;96097.09;5045171;28;20041;-74
2022/03/14 05:01:25;;;;;;;39.17;17.60;;;;;;;6.19;69.96;96106.97;5029905;28;20044;-74
2022/03/14 05:03:52;;;;;;;43.95;17.30;;;;;;;6.39;69.83;96109.25;5046869;28;20120;-74
2022/03/14 05:06:18;;;;;;;39.67;16.95;;;;;;;6.36;69.86;96110.50;5039986;28;20053;-73
2022/03/14 05:08:44;;;;;;;40.60;17.23;;;;;;;6.26;70.80;96114.69;5033574;28;20041;-74
2022/03/14 05:11:11;;;;;;;38.63;16.50;;;;;;;6.15;71.58;96118.88;5037717;28;20045;-75
2022/03/14 05:13:37;;;;;;;41.28;15.95;;;;;;;6.13;72.17;96131.41;5046590;28;20124;-75
2022/03/14 05:16:03;;;;;;;37.22;14.68;;;;;;;6.23;72.26;96136.84;5042976;28;20052;-75
2022/03/14 05:18:29;;;;;;;26.33;12.20;;;;;;;6.31;72.69;96136.53;5043026;28;20071;-73
2022/03/14 05:20:54;;;;;;;34.15;15.13;;;;;;;6.18;73.35;96141.97;5038759;28;20503;-73
2022/03/14 05:23:20;;;;;;;39.83;14.25;;;;;;;6.29;73.78;96149.00;5044762;28;20037;-73
2022/03/14 05:25:46;;;;;;;28.08;12.73;;;;;;;6.30;73.58;96155.06;5042175;28;20044;-73
2022/03/14 05:28:12;;;;;;;29.67;13.38;;;;;;;6.35;73.73;96161.19;5050783;28;20482;-72
2022/03/14 05:30:37;;;;;;;25.27;11.95;;;;;;;6.39;74.12;96162.34;5046335;28;20200;-72
2022/03/14 05:33:03;;;;;;;24.17;10.85;;;;;;;6.46;74.46;96177.13;5056156;28;20090;-73
2022/03/14 05:35:29;;;;;;;29.02;11.20;;;;;;;6.40;74.30;96179.59;5040628;28;20041;-73
2022/03/14 05:37:55;;;;;;;24.50;10.77;;;;;;;6.36;74.71;96199.38;5058273;28;20497;-74
2022/03/14 05:40:20;;;;;;;22.23;10.02;;;;;;;6.58;74.29;96191.00;5040305;28;20037;-73
2022/03/14 05:42:48;;;;;;;24.85;10.15;;;;;;;6.51;74.42;96198.16;5032808;28;20037;-73
2022/03/14 05:45:15;;;;;;;23.33;9.77;;;;;;;6.58;74.63;96202.25;5029102;28;20103;-73
2022/03/14 05:47:41;;;;;;;20.50;9.82;;;;;;;6.66;74.37;96203.72;5041996;28;20045;-73
2022/03/14 05:50:07;;;;;;;27.08;9.88;;;;;;;6.65;75.19;96207.38;5035277;28;20418;-73
2022/03/14 05:52:32;;;;;;;21.52;9.77;;;;;;;6.66;75.40;96219.41;5050278;28;20281;-73
2022/03/14 05:54:58;;;;;;;20.15;9.35;;;;;;;6.70;75.29;96215.34;5048430;28;20391;-73
2022/03/14 05:57:24;;;;;;;20.98;9.23;;;;;;;6.57;76.85;96224.19;5049246;28;20107;-71
2022/03/14 05:59:50;;;;;;;21.52;9.20;;;;;;;6.66;76.78;96223.88;5048625;28;20065;-72
2022/03/14 06:02:23;;;;;;;18.15;8.68;;;;;;;6.68;77.31;96222.63;5050895;28;20048;-72
2022/03/14 06:04:49;;;;;;;18.65;9.35;;;;;;;6.68;77.24;96234.88;5046474;28;20044;-73
2022/03/14 06:07:16;;;;;;;17.38;9.35;;;;;;;6.61;77.32;96237.63;5056375;28;20391;-73
2022/03/14 06:09:41;;;;;;;16.95;8.98;;;;;;;6.55;77.60;96248.97;5065900;28;20114;-73
2022/03/14 06:12:07;;;;;;;17.83;8.45;;;;;;;6.65;77.49;96254.47;5047235;28;20531;-73
2022/03/14 06:14:34;;;;;;;18.58;8.35;;;;;;;6.67;77.71;96257.63;5050620;28;20190;-73
2022/03/14 06:16:59;;;;;;;16.55;7.70;;;;;;;6.83;77.49;96260.63;5033029;28;20510;-73
2022/03/14 06:19:26;;;;;;;17.98;7.88;;;;;;;6.92;77.30;96261.88;5039956;28;20440;-73
2022/03/14 06:21:51;;;;;;;19.15;8.00;;;;;;;6.83;77.51;96276.31;5044084;28;20098;-72
2022/03/14 06:24:17;;;;;;;14.90;7.03;;;;;;;6.92;77.14;96285.41;5045966;28;20573;-74
2022/03/14 06:26:43;;;;;;;16.15;7.72;;;;;;;6.91;77.85;96299.50;5036377;28;20052;-72
2022/03/14 06:29:09;;;;;;;14.60;7.00;;;;;;;6.98;77.05;96287.13;5037420;28;20068;-73
2022/03/14 06:31:34;;;;;;;17.38;7.15;;;;;;;6.93;77.19;96297.47;5047328;28;20413;-74
2022/03/14 06:34:00;;;;;;;15.55;6.88;;;;;;;6.94;77.39;96299.09;5045968;28;20046;-73
2022/03/14 06:36:27;;;;;;;11.13;5.43;;;;;;;7.11;76.95;96292.16;5053929;28;20044;-74
2022/03/14 06:38:55;;;;;;;14.02;7.05;;;;;;;7.06;77.40;96299.09;5046906;28;20116;-74
2022/03/14 06:41:20;;;;;;;14.65;6.20;;;;;;;7.14;76.70;96305.78;5039613;28;20049;-74
2022/03/14 06:43:46;;;;;;;16.95;6.47;;;;;;;7.14;76.91;96313.66;5048537;28;20059;-73
2022/03/14 06:46:12;;;;;;;12.18;5.90;;;;;;;7.10;76.35;96324.56;5044804;28;20071;-73
2022/03/14 06:48:41;;;;;;;11.95;5.95;;;;;;;7.03;76.90;96323.88;5054400;28;20750;-74
2022/03/14 06:51:07;;;;;;;10.38;5.50;;;;;;;6.90;76.91;96318.88;5037438;28;20044;-72
2022/03/14 06:53:33;;;;;;;9.68;5.50;;;;;;;7.09;76.75;96316.94;5046588;28;20041;-73
2022/03/14 06:55:58;;;;;;;10.23;5.25;;;;;;;7.10;76.42;96329.81;5045016;28;20045;-72
2022/03/14 06:58:24;;;;;;;9.73;5.32;;;;;;;7.21;76.11;96319.56;5046547;28;20052;-73
2022/03/14 07:00:50;;;;;;;9.20;4.90;;;;;;;7.30;75.85;96320.84;5042818;28;20069;-73
2022/03/14 07:03:16;;;;;;;8.15;4.25;;;;;;;7.23;75.44;96320.16;5042253;28;20049;-75
2022/03/14 07:05:42;;;;;;;7.82;4.22;;;;;;;7.28;75.71;96322.88;5052020;28;20041;-74
2022/03/14 07:08:09;;;;;;;7.80;4.03;;;;;;;7.40;74.83;96336.75;5053425;28;20033;-72
2022/03/14 07:10:36;;;;;;;9.85;4.22;;;;;;;7.35;74.18;96328.78;5046651;28;20103;-71
2022/03/14 07:13:02;;;;;;;7.88;4.50;;;;;;;7.31;74.39;96330.25;5043251;28;20055;-72
2022/03/14 07:15:27;;;;;;;6.85;3.88;;;;;;;7.51;73.67;96334.38;5040144;28;20036;-73
2022/03/14 07:17:53;;;;;;;7.75;4.03;;;;;;;7.46;73.70;96335.06;5044141;28;20037;-72
2022/03/14 07:20:20;;;;;;;7.78;4.10;;;;;;;7.59;73.21;96336.63;5052560;28;20055;-71
2022/03/14 07:22:57;;;;;;;8.23;4.03;;;;;;;7.67;73.12;96344.16;5048754;28;20045;-71
2022/03/14 07:25:28;;;;;;;6.05;3.47;;;;;;;7.94;71.61;96343.63;5047949;28;20037;-71
2022/03/14 07:27:55;;;;;;;6.75;3.50;;;;;;;7.85;71.69;96345.03;5047904;28;20060;-72
2022/03/14 07:30:22;;;;;;;7.90;3.38;;;;;;;7.97;70.83;96353.66;5048794;28;20402;-72
2022/03/14 07:32:47;;;;;;;7.82;3.50;;;;;;;7.94;70.88;96369.84;5038655;28;20148;-72
2022/03/14 07:35:13;;;;;;;6.65;3.13;;;;;;;8.04;70.34;96364.03;5046601;28;20566;-74
2022/03/14 07:37:40;;;;;;;6.88;3.60;;;;;;;7.91;69.84;96365.84;5046197;28;20041;-75
2022/03/14 07:40:10;;;;;;;6.88;3.50;;;;;;;8.25;68.58;96370.47;5049720;28;20037;-73
2022/03/14 07:42:43;;;;;;;6.10;3.30;;;;;;;8.16;69.05;96367.41;5041540;28;20049;-73
2022/03/14 07:45:11;;;;;;;6.15;3.28;;;;;;;8.17;69.24;96379.47;5036191;28;20048;-74
2022/03/14 07:47:37;;;;;;;7.57;2.60;;;;;;;8.35;67.95;96380.34;5041516;28;20049;-73
2022/03/14 07:50:07;;;;;;;4.53;2.72;;;;;;;8.52;66.95;96385.66;5046885;28;20033;-73
2022/03/14 07:52:33;;;;;;;3.75;2.45;;;;;;;8.52;67.03;96385.66;5041717;28;20041;-72
2022/03/14 07:54:59;;;;;;;4.97;2.58;;;;;;;8.29;67.22;96392.56;5036534;28;20052;-72
2022/03/14 07:57:25;;;;;;;3.55;2.20;;;;;;;8.15;67.35;96387.56;5041545;28;20037;-72
2022/03/14 07:59:52;;;;;;;4.75;2.45;;;;;;;8.20;67.38;96388.72;5048074;28;20040;-72
2022/03/14 08:02:18;;;;;;;8.15;2.47;;;;;;;8.26;66.96;96396.47;5050159;28;20049;-72
2022/03/14 08:04:43;;;;;;;4.28;2.40;;;;;;;8.28;67.14;96401.47;5047546;28;20045;-74
2022/03/14 08:07:09;;;;;;;7.93;2.55;;;;;;;8.40;66.87;96394.34;5046968;28;20033;-72
2022/03/14 08:09:35;;;;;;;4.43;2.30;;;;;;;8.39;66.38;96403.25;5046511;28;20040;-72
2022/03/14 08:12:03;;;;;;;3.78;1.90;;;;;;;8.38;66.30;96408.75;5057851;28;20042;-72
2022/03/14 08:14:29;;;;;;;6.45;2.42;;;;;;;8.36;66.24;96414.22;5049085;28;20045;-71
2022/03/14 08:16:54;;;;;;;5.15;2.05;;;;;;;8.40;66.32;96420.56;5040836;28;20037;-71
2022/03/14 08:19:21;;;;;;;4.30;1.92;;;;;;;8.58;64.81;96418.84;5040585;28;20498;-72
2022/03/14 08:21:47;;;;;;;2.75;1.50;;;;;;;8.56;64.07;96428.78;5042928;28;20037;-72
2022/03/14 08:24:14;;;;;;;2.88;1.70;;;;;;;8.56;64.18;96428.78;5047927;28;20578;-72
2022/03/14 08:26:41;;;;;;;2.90;1.60;;;;;;;8.59;64.82;96417.81;5060008;28;20057;-72
2022/03/14 08:29:06;;;;;;;3.88;1.65;;;;;;;8.84;63.25;96428.78;5050114;28;20060;-72
2022/03/14 08:31:32;;;;;;;3.78;1.80;;;;;;;8.78;62.41;96432.34;5052728;28;20044;-72
2022/03/14 08:33:58;;;;;;;2.45;1.50;;;;;;;8.81;62.39;96431.88;5044537;28;20136;-72
2022/03/14 08:36:24;;;;;;;2.17;1.40;;;;;;;9.02;62.66;96442.72;5040195;28;20037;-72
2022/03/14 08:38:50;;;;;;;1.70;1.33;;;;;;;9.08;61.75;96452.31;5050808;28;20042;-72
2022/03/14 08:41:17;;;;;;;1.85;1.40;;;;;;;9.08;61.51;96452.31;5044416;28;20044;-71
2022/03/14 08:43:43;;;;;;;3.03;1.40;;;;;;;8.95;62.14;96448.16;5046971;28;20048;-72
2022/03/14 08:46:10;;;;;;;1.85;1.40;;;;;;;8.84;62.74;96449.78;5035771;28;20041;-71
2022/03/14 08:48:35;;;;;;;4.50;1.55;;;;;;;9.04;61.89;96461.69;5044910;28;20067;-71
2022/03/14 08:51:01;;;;;;;4.43;1.38;;;;;;;9.06;61.81;96464.84;5039939;28;20037;-71
2022/03/14 08:53:26;;;;;;;2.70;1.60;;;;;;;9.30;60.85;96464.75;5039224;28;20061;-71
2022/03/14 08:55:53;;;;;;;3.03;1.48;;;;;;;9.31;60.49;96471.56;5033019;28;20099;-71
2022/03/14 08:58:18;;;;;;;3.28;1.40;;;;;;;9.28;59.78;96466.81;5042661;28;20041;-70
2022/03/14 09:00:44;;;;;;;2.65;1.70;;;;;;;9.46;59.09;96473.69;5046293;28;20049;-72
2022/03/14 09:03:10;;;;;;;1.38;1.23;;;;;;;9.43;59.27;96461.81;5043367;28;20553;-71
2022/03/14 09:05:35;;;;;;;3.42;1.30;;;;;;;9.54;57.78;96466.19;5041303;28;20136;-71
2022/03/14 09:08:01;;;;;;;2.63;1.30;;;;;;;9.63;57.82;96473.69;5047802;28;20127;-71
2022/03/14 09:10:27;;;;;;;4.45;1.30;;;;;;;9.80;56.55;96474.47;5050031;28;20391;-73
2022/03/14 09:12:52;;;;;;;3.20;1.17;;;;;;;9.67;57.09;96472.19;5033027;28;20041;-72
2022/03/14 09:15:19;;;;;;;1.40;1.30;;;;;;;9.75;57.28;96477.00;5066853;28;20045;-72
2022/03/14 09:17:46;;;;;;;1.90;1.40;;;;;;;9.57;57.84;96472.00;5047370;28;20045;-71
2022/03/14 09:20:13;;;;;;;3.10;1.38;;;;;;;9.91;56.77;96474.63;5040913;28;20075;-71
2022/03/14 09:22:40;;;;;;;1.80;1.40;;;;;;;9.66;57.50;96473.22;5042643;28;20112;-72
2022/03/14 09:25:06;;;;;;;5.95;1.35;;;;;;;9.65;57.72;96474.22;5037475;28;20121;-73
2022/03/14 09:27:31;;;;;;;1.83;1.40;;;;;;;9.65;57.87;96487.38;5044209;28;20044;-72
2022/03/14 09:29:57;;;;;;;1.58;1.38;;;;;;;9.90;56.89;96489.59;5040172;28;20068;-71
2022/03/14 09:32:23;;;;;;;2.17;1.48;;;;;;;9.90;57.88;96489.59;5041170;28;20732;-71
2022/03/14 09:34:48;;;;;;;1.65;1.42;;;;;;;10.15;56.80;96486.53;5039444;28;20049;-71
2022/03/14 09:37:15;;;;;;;3.33;2.47;;;;;;;10.11;56.51;96485.41;5042346;28;20513;-72
2022/03/14 09:39:41;;;;;;;2.08;1.40;;;;;;;10.02;57.31;96492.13;5048203;28;20041;-71
2022/03/14 09:42:11;;;;;;;1.98;1.50;;;;;;;10.11;56.54;96495.94;5042286;28;20037;-71
2022/03/14 09:44:41;;;;;;;1.60;1.27;;;;;;;10.06;57.21;96493.25;5045203;28;20033;-72
2022/03/14 09:47:08;;;;;;;1.92;1.38;;;;;;;10.31;56.50;96489.38;5045620;28;20045;-71
2022/03/14 09:49:35;;;;;;;3.33;1.50;;;;;;;10.51;55.33;96486.25;5038088;28;20045;-72
2022/03/14 09:52:02;;;;;;;2.33;1.63;;;;;;;10.65;54.96;96494.56;5043608;28;20534;-73
2022/03/14 09:54:28;;;;;;;2.13;1.60;;;;;;;10.66;54.85;96493.50;5040148;28;20049;-72
2022/03/14 09:56:56;;;;;;;2.33;1.60;;;;;;;10.61;54.97;96488.22;5034743;28;20553;-72
2022/03/14 09:59:22;;;;;;;6.80;1.63;;;;;;;10.74;55.19;96495.72;5051709;28;20559;-72
2022/03/14 10:01:48;;;;;;;2.47;1.50;;;;;;;10.72;54.86;96489.91;5040737;28;20167;-72
2022/03/14 10:04:14;;;;;;;2.28;1.58;;;;;;;10.86;54.79;96496.41;5049107;28;20421;-72
2022/03/14 10:06:40;;;;;;;4.05;1.60;;;;;;;10.98;54.52;96503.38;5040850;28;20056;-72
2022/03/14 10:09:07;;;;;;;2.65;1.60;;;;;;;11.37;53.63;96500.59;5041049;28;20048;-73
2022/03/14 10:11:32;;;;;;;4.93;1.65;;;;;;;11.18;53.17;96485.13;5047996;28;20037;-71
2022/03/14 10:13:58;;;;;;;2.05;1.45;;;;;;;11.42;52.54;96508.53;5056251;28;20049;-71
2022/03/14 10:16:27;;;;;;;1.50;1.25;;;;;;;11.94;50.86;96500.03;5038190;28;20033;-71
2022/03/14 10:18:54;;;;;;;3.83;1.60;;;;;;;12.63;48.91;96490.38;5038475;28;20038;-71
2022/03/14 10:21:34;;;;;;;2.35;1.65;;;;;;;13.59;46.82;96490.09;5035251;28;20041;-72
2022/03/14 10:24:10;;;;;;;3.88;1.52;;;;;;;13.37;47.00;96484.25;5044298;28;20632;-73
2022/03/14 10:26:40;;;;;;;1.40;1.30;;;;;;;13.10;47.19;96498.44;5035904;28;20044;-71
2022/03/14 10:29:15;;;;;;;1.65;1.40;;;;;;;13.95;45.06;96508.59;5048816;28;20051;-72
2022/03/14 10:31:43;;;;;;;1.92;1.30;;;;;;;14.65;43.09;96509.78;5045190;28;20041;-72
2022/03/14 10:34:14;;;;;;;2.90;1.40;;;;;;;14.70;42.93;96502.63;5042868;28;20112;-72
2022/03/14 10:36:57;;;;;;;1.73;1.40;;;;;;;14.51;42.41;96506.88;5047423;28;20075;-72
2022/03/14 10:39:28;;;;;;;2.55;1.50;;;;;;;15.95;40.81;96503.47;5037499;28;20574;-72
2022/03/14 10:42:02;;;;;;;2.40;1.30;;;;;;;16.26;38.85;96503.97;5048425;28;20059;-72
2022/03/14 10:44:28;;;;;;;2.67;1.60;;;;;;;15.65;40.31;96499.97;5048019;28;20379;-71
2022/03/14 10:46:57;;;;;;;1.40;1.30;;;;;;;15.15;41.00;96507.19;5045764;28;20052;-71
2022/03/14 10:49:43;;;;;;;1.65;1.50;;;;;;;17.09;38.04;96498.50;5042132;28;20112;-72
2022/03/14 10:52:11;;;;;;;2.22;1.60;;;;;;;16.90;37.91;96503.03;5048638;28;20105;-72
2022/03/14 10:54:38;;;;;;;2.38;1.50;;;;;;;17.27;37.34;96493.50;5052856;28;20052;-72
2022/03/14 10:57:18;;;;;;;3.13;1.50;;;;;;;17.36;36.64;96497.06;5051873;28;20414;-71
2022/03/14 10:59:49;;;;;;;2.38;1.58;;;;;;;17.37;37.93;96497.84;5038798;28;20052;-71
2022/03/14 11:02:19;;;;;;;6.80;1.70;;;;;;;18.34;34.92;96498.16;5043544;28;20061;-72
2022/03/14 11:04:46;;;;;;;2.13;1.67;;;;;;;17.92;35.16;96497.31;5040606;28;20041;-72
2022/03/14 11:07:13;;;;;;;3.83;1.90;;;;;;;18.50;33.86;96502.13;5045379;28;20038;-74
2022/03/14 11:09:48;;;;;;;5.88;1.90;;;;;;;17.69;35.63;96505.09;5052856;28;20049;-73
2022/03/14 11:12:16;;;;;;;3.42;2.15;;;;;;;18.47;34.65;96516.03;5047422;28;20048;-78
2022/03/14 11:14:49;;;;;;;3.60;1.80;;;;;;;17.55;36.05;96509.56;5039368;28;20041;-76
2022/03/14 11:17:15;;;;;;;3.80;1.90;;;;;;;17.16;35.93;96502.69;5046368;28;20161;-74
2022/03/14 11:19:41;;;;;;;3.20;1.92;;;;;;;18.53;34.30;96506.06;5052165;28;20472;-72
2022/03/14 11:22:12;;;;;;;3.03;1.88;;;;;;;18.91;32.90;96505.09;5059340;28;20045;-73
2022/03/14 11:24:52;;;;;;;5.95;2.10;;;;;;;19.02;33.12;96506.44;5040969;28;20032;-72
2022/03/14 11:27:23;;;;;;;10.60;1.98;;;;;;;19.40;31.54;96500.84;5041624;28;20050;-73